sensor_id;sensor_type;location;lat;lon;timestamp;P1;durP1;ratioP1;P2;durP2;ratioP2
75768;SDS011;64379;48.888;8.330;2023-04-03T00:01:03;2.45;;;1.30;;
75768;SDS011;64379;48.888;8.330;2023-04-03T00:03:29;3.38;;;1.50;;
75768;SDS011;64379;48.888;8.330;2023-04-03T00:05:55;4.75;;;1.40;;
75768;SDS011;64379;48.888;8.330;2023-04-03T00:08:20;4.25;;;1.48;;
75768;SDS011;64379;48.888;8.330;2023-04-03T00:10:46;4.45;;;1.70;;
75768;SDS011;64379;48.888;8.330;2023-04-03T00:13:12;4.50;;;1.70;;
75768;SDS011;64379;48.888;8.330;2023-04-03T00:15:38;4.15;;;1.38;;
75768;SDS011;64379;48.888;8.330;2023-04-03T00:18:04;3.85;;;1.30;;
75768;SDS011;64379;48.888;8.330;2023-04-03T00:20:30;3.28;;;1.42;;
75768;SDS011;64379;48.888;8.330;2023-04-03T00:22:56;2.67;;;1.33;;
75768;SDS011;64379;48.888;8.330;2023-04-03T00:25:22;6.55;;;2.30;;
75768;SDS011;64379;48.888;8.330;2023-04-03T00:27:48;3.00;;;1.27;;
75768;SDS011;64379;48.888;8.330;2023-04-03T00:30:15;4.90;;;1.55;;
75768;SDS011;64379;48.888;8.330;2023-04-03T00:32:42;4.20;;;1.40;;
75768;SDS011;64379;48.888;8.330;2023-04-03T00:35:08;3.95;;;1.40;;
75768;SDS011;64379;48.888;8.330;2023-04-03T00:37:35;4.07;;;1.50;;
75768;SDS011;64379;48.888;8.330;2023-04-03T00:40:00;3.83;;;1.30;;
75768;SDS011;64379;48.888;8.330;2023-04-03T00:42:26;3.95;;;1.60;;
75768;SDS011;64379;48.888;8.330;2023-04-03T00:47:20;4.13;;;1.38;;
75768;SDS011;64379;48.888;8.330;2023-04-03T00:49:47;4.60;;;1.50;;
75768;SDS011;64379;48.888;8.330;2023-04-03T00:52:13;3.42;;;1.40;;
75768;SDS011;64379;48.888;8.330;2023-04-03T00:54:41;4.18;;;1.40;;
75768;SDS011;64379;48.888;8.330;2023-04-03T00:57:08;3.28;;;1.45;;
75768;SDS011;64379;48.888;8.330;2023-04-03T00:59:38;3.85;;;1.30;;
75768;SDS011;64379;48.888;8.330;2023-04-03T01:02:09;3.22;;;1.33;;
75768;SDS011;64379;48.888;8.330;2023-04-03T01:04:39;3.10;;;1.20;;
75768;SDS011;64379;48.888;8.330;2023-04-03T01:07:15;3.60;;;1.50;;
75768;SDS011;64379;48.888;8.330;2023-04-03T01:09:41;3.00;;;1.30;;
75768;SDS011;64379;48.888;8.330;2023-04-03T01:12:23;5.15;;;1.42;;
75768;SDS011;64379;48.888;8.330;2023-04-03T01:14:58;3.13;;;1.20;;
75768;SDS011;64379;48.888;8.330;2023-04-03T01:17:27;3.50;;;1.35;;
75768;SDS011;64379;48.888;8.330;2023-04-03T01:25:28;3.63;;;1.30;;
75768;SDS011;64379;48.888;8.330;2023-04-03T01:27:54;2.53;;;1.10;;
75768;SDS011;64379;48.888;8.330;2023-04-03T01:30:21;3.28;;;1.10;;
75768;SDS011;64379;48.888;8.330;2023-04-03T01:32:50;3.75;;;1.23;;
75768;SDS011;64379;48.888;8.330;2023-04-03T01:35:15;3.83;;;1.40;;
75768;SDS011;64379;48.888;8.330;2023-04-03T01:37:41;3.85;;;1.50;;
75768;SDS011;64379;48.888;8.330;2023-04-03T01:40:06;2.15;;;1.10;;
75768;SDS011;64379;48.888;8.330;2023-04-03T01:42:33;5.82;;;1.40;;
75768;SDS011;64379;48.888;8.330;2023-04-03T01:44:58;4.95;;;1.30;;
75768;SDS011;64379;48.888;8.330;2023-04-03T01:47:24;3.60;;;1.60;;
75768;SDS011;64379;48.888;8.330;2023-04-03T01:49:49;2.70;;;1.17;;
75768;SDS011;64379;48.888;8.330;2023-04-03T01:52:15;2.88;;;1.30;;
75768;SDS011;64379;48.888;8.330;2023-04-03T01:54:43;4.97;;;1.48;;
75768;SDS011;64379;48.888;8.330;2023-04-03T01:57:09;3.10;;;1.20;;
75768;SDS011;64379;48.888;8.330;2023-04-03T01:59:35;8.38;;;1.40;;
75768;SDS011;64379;48.888;8.330;2023-04-03T02:02:00;5.78;;;1.15;;
75768;SDS011;64379;48.888;8.330;2023-04-03T02:04:26;3.35;;;1.27;;
75768;SDS011;64379;48.888;8.330;2023-04-03T02:06:52;2.42;;;1.20;;
75768;SDS011;64379;48.888;8.330;2023-04-03T02:09:17;2.92;;;1.20;;
75768;SDS011;64379;48.888;8.330;2023-04-03T02:11:43;4.75;;;1.20;;
75768;SDS011;64379;48.888;8.330;2023-04-03T02:14:08;3.70;;;1.10;;
75768;SDS011;64379;48.888;8.330;2023-04-03T02:16:34;3.80;;;1.15;;
75768;SDS011;64379;48.888;8.330;2023-04-03T02:19:00;3.25;;;1.20;;
75768;SDS011;64379;48.888;8.330;2023-04-03T02:21:25;2.58;;;1.20;;
75768;SDS011;64379;48.888;8.330;2023-04-03T02:23:51;2.80;;;1.10;;
75768;SDS011;64379;48.888;8.330;2023-04-03T02:26:17;3.13;;;1.20;;
75768;SDS011;64379;48.888;8.330;2023-04-03T02:28:42;4.10;;;1.33;;
75768;SDS011;64379;48.888;8.330;2023-04-03T02:31:08;3.25;;;1.20;;
75768;SDS011;64379;48.888;8.330;2023-04-03T02:33:35;5.85;;;1.70;;
75768;SDS011;64379;48.888;8.330;2023-04-03T02:36:02;3.50;;;1.40;;
75768;SDS011;64379;48.888;8.330;2023-04-03T02:38:29;3.80;;;1.40;;
75768;SDS011;64379;48.888;8.330;2023-04-03T02:41:05;4.72;;;1.20;;
75768;SDS011;64379;48.888;8.330;2023-04-03T02:43:32;6.15;;;1.13;;
75768;SDS011;64379;48.888;8.330;2023-04-03T02:45:58;2.83;;;1.30;;
75768;SDS011;64379;48.888;8.330;2023-04-03T02:48:24;3.45;;;1.30;;
75768;SDS011;64379;48.888;8.330;2023-04-03T02:50:50;5.13;;;1.25;;
75768;SDS011;64379;48.888;8.330;2023-04-03T02:53:16;3.22;;;1.20;;
75768;SDS011;64379;48.888;8.330;2023-04-03T02:55:41;3.92;;;1.40;;
75768;SDS011;64379;48.888;8.330;2023-04-03T02:58:07;3.72;;;1.33;;
75768;SDS011;64379;48.888;8.330;2023-04-03T03:00:33;2.55;;;1.23;;
75768;SDS011;64379;48.888;8.330;2023-04-03T03:02:59;3.30;;;1.40;;
75768;SDS011;64379;48.888;8.330;2023-04-03T03:05:25;3.00;;;1.20;;
75768;SDS011;64379;48.888;8.330;2023-04-03T03:07:52;5.22;;;1.50;;
75768;SDS011;64379;48.888;8.330;2023-04-03T03:10:18;4.28;;;1.13;;
75768;SDS011;64379;48.888;8.330;2023-04-03T03:12:44;3.60;;;1.15;;
75768;SDS011;64379;48.888;8.330;2023-04-03T03:15:10;3.95;;;1.40;;
75768;SDS011;64379;48.888;8.330;2023-04-03T03:17:36;4.82;;;1.50;;
75768;SDS011;64379;48.888;8.330;2023-04-03T03:20:02;3.92;;;1.33;;
75768;SDS011;64379;48.888;8.330;2023-04-03T03:22:28;3.60;;;1.35;;
75768;SDS011;64379;48.888;8.330;2023-04-03T03:24:54;4.00;;;1.60;;
75768;SDS011;64379;48.888;8.330;2023-04-03T03:27:20;3.60;;;1.40;;
75768;SDS011;64379;48.888;8.330;2023-04-03T03:29:45;3.63;;;1.40;;
75768;SDS011;64379;48.888;8.330;2023-04-03T03:32:11;2.90;;;1.30;;
75768;SDS011;64379;48.888;8.330;2023-04-03T03:34:37;3.53;;;1.30;;
75768;SDS011;64379;48.888;8.330;2023-04-03T03:37:02;2.83;;;1.33;;
75768;SDS011;64379;48.888;8.330;2023-04-03T03:39:28;3.05;;;1.40;;
75768;SDS011;64379;48.888;8.330;2023-04-03T03:41:54;2.42;;;1.30;;
75768;SDS011;64379;48.888;8.330;2023-04-03T03:44:20;3.50;;;1.40;;
75768;SDS011;64379;48.888;8.330;2023-04-03T03:46:45;4.00;;;1.60;;
75768;SDS011;64379;48.888;8.330;2023-04-03T03:49:11;3.50;;;1.48;;
75768;SDS011;64379;48.888;8.330;2023-04-03T03:51:37;4.15;;;1.63;;
75768;SDS011;64379;48.888;8.330;2023-04-03T03:54:03;3.67;;;1.38;;
75768;SDS011;64379;48.888;8.330;2023-04-03T03:56:30;6.10;;;1.70;;
75768;SDS011;64379;48.888;8.330;2023-04-03T03:58:56;4.72;;;1.60;;
75768;SDS011;64379;48.888;8.330;2023-04-03T04:01:22;5.25;;;1.60;;
75768;SDS011;64379;48.888;8.330;2023-04-03T04:03:48;4.07;;;1.70;;
75768;SDS011;64379;48.888;8.330;2023-04-03T04:06:14;3.47;;;1.20;;
75768;SDS011;64379;48.888;8.330;2023-04-03T04:08:40;3.97;;;1.60;;
75768;SDS011;64379;48.888;8.330;2023-04-03T04:11:06;3.58;;;1.40;;
75768;SDS011;64379;48.888;8.330;2023-04-03T04:13:32;2.85;;;1.30;;
75768;SDS011;64379;48.888;8.330;2023-04-03T04:15:58;3.35;;;1.42;;
75768;SDS011;64379;48.888;8.330;2023-04-03T04:18:23;3.15;;;1.50;;
75768;SDS011;64379;48.888;8.330;2023-04-03T04:20:49;4.60;;;1.60;;
75768;SDS011;64379;48.888;8.330;2023-04-03T04:23:16;5.40;;;1.70;;
75768;SDS011;64379;48.888;8.330;2023-04-03T04:25:44;4.57;;;1.73;;
75768;SDS011;64379;48.888;8.330;2023-04-03T04:28:10;3.80;;;1.50;;
75768;SDS011;64379;48.888;8.330;2023-04-03T04:30:36;5.38;;;1.58;;
75768;SDS011;64379;48.888;8.330;2023-04-03T04:33:02;4.65;;;1.67;;
75768;SDS011;64379;48.888;8.330;2023-04-03T04:35:28;5.10;;;1.92;;
75768;SDS011;64379;48.888;8.330;2023-04-03T04:37:53;8.00;;;2.22;;
75768;SDS011;64379;48.888;8.330;2023-04-03T04:40:19;4.43;;;1.88;;
75768;SDS011;64379;48.888;8.330;2023-04-03T04:42:45;4.90;;;1.80;;
75768;SDS011;64379;48.888;8.330;2023-04-03T04:45:14;4.95;;;1.98;;
75768;SDS011;64379;48.888;8.330;2023-04-03T04:47:40;4.90;;;1.70;;
75768;SDS011;64379;48.888;8.330;2023-04-03T04:50:06;8.15;;;2.40;;
75768;SDS011;64379;48.888;8.330;2023-04-03T04:52:32;5.07;;;1.85;;
75768;SDS011;64379;48.888;8.330;2023-04-03T04:54:57;6.25;;;2.13;;
75768;SDS011;64379;48.888;8.330;2023-04-03T04:57:23;4.78;;;2.10;;
75768;SDS011;64379;48.888;8.330;2023-04-03T04:59:49;7.00;;;2.50;;
75768;SDS011;64379;48.888;8.330;2023-04-03T05:02:15;7.38;;;2.60;;
75768;SDS011;64379;48.888;8.330;2023-04-03T05:04:41;8.55;;;2.78;;
75768;SDS011;64379;48.888;8.330;2023-04-03T05:07:27;6.80;;;2.92;;
75768;SDS011;64379;48.888;8.330;2023-04-03T05:09:56;6.55;;;2.90;;
75768;SDS011;64379;48.888;8.330;2023-04-03T05:15:55;7.20;;;2.60;;
75768;SDS011;64379;48.888;8.330;2023-04-03T05:18:23;19.92;;;4.55;;
75768;SDS011;64379;48.888;8.330;2023-04-03T05:24:36;9.32;;;3.95;;
75768;SDS011;64379;48.888;8.330;2023-04-03T05:27:51;6.57;;;2.95;;
75768;SDS011;64379;48.888;8.330;2023-04-03T05:30:30;7.90;;;2.60;;
75768;SDS011;64379;48.888;8.330;2023-04-03T05:32:55;6.03;;;2.38;;
75768;SDS011;64379;48.888;8.330;2023-04-03T05:35:21;8.10;;;2.55;;
75768;SDS011;64379;48.888;8.330;2023-04-03T05:37:53;6.88;;;2.45;;
75768;SDS011;64379;48.888;8.330;2023-04-03T05:40:22;8.25;;;2.80;;
75768;SDS011;64379;48.888;8.330;2023-04-03T05:42:51;7.40;;;3.10;;
75768;SDS011;64379;48.888;8.330;2023-04-03T05:45:20;7.40;;;2.25;;
75768;SDS011;64379;48.888;8.330;2023-04-03T05:51:38;8.43;;;2.22;;
75768;SDS011;64379;48.888;8.330;2023-04-03T05:57:30;5.60;;;2.38;;
75768;SDS011;64379;48.888;8.330;2023-04-03T05:59:58;6.47;;;2.20;;
75768;SDS011;64379;48.888;8.330;2023-04-03T06:02:27;5.95;;;1.92;;
75768;SDS011;64379;48.888;8.330;2023-04-03T06:04:53;5.38;;;1.90;;
75768;SDS011;64379;48.888;8.330;2023-04-03T06:07:19;6.68;;;2.03;;
75768;SDS011;64379;48.888;8.330;2023-04-03T06:09:53;5.93;;;1.80;;
75768;SDS011;64379;48.888;8.330;2023-04-03T06:12:26;6.03;;;1.80;;
75768;SDS011;64379;48.888;8.330;2023-04-03T06:14:55;4.50;;;1.67;;
75768;SDS011;64379;48.888;8.330;2023-04-03T06:17:20;4.20;;;1.65;;
75768;SDS011;64379;48.888;8.330;2023-04-03T06:19:57;4.82;;;1.85;;
75768;SDS011;64379;48.888;8.330;2023-04-03T06:22:23;4.95;;;1.70;;
75768;SDS011;64379;48.888;8.330;2023-04-03T06:24:53;3.22;;;1.40;;
75768;SDS011;64379;48.888;8.330;2023-04-03T06:27:19;4.03;;;1.50;;
75768;SDS011;64379;48.888;8.330;2023-04-03T06:29:54;4.55;;;1.60;;
75768;SDS011;64379;48.888;8.330;2023-04-03T06:32:20;4.50;;;1.60;;
75768;SDS011;64379;48.888;8.330;2023-04-03T06:35:04;6.63;;;1.50;;
75768;SDS011;64379;48.888;8.330;2023-04-03T06:41:00;2.88;;;1.50;;
75768;SDS011;64379;48.888;8.330;2023-04-03T06:43:28;2.88;;;1.35;;
75768;SDS011;64379;48.888;8.330;2023-04-03T06:45:56;3.65;;;1.60;;
75768;SDS011;64379;48.888;8.330;2023-04-03T06:48:25;4.72;;;1.42;;
75768;SDS011;64379;48.888;8.330;2023-04-03T06:51:05;2.83;;;1.20;;
75768;SDS011;64379;48.888;8.330;2023-04-03T06:53:33;6.93;;;2.67;;
75768;SDS011;64379;48.888;8.330;2023-04-03T06:55:59;4.82;;;1.70;;
75768;SDS011;64379;48.888;8.330;2023-04-03T06:58:25;9.10;;;2.85;;
75768;SDS011;64379;48.888;8.330;2023-04-03T07:00:50;4.20;;;1.52;;
75768;SDS011;64379;48.888;8.330;2023-04-03T07:03:16;3.42;;;1.33;;
75768;SDS011;64379;48.888;8.330;2023-04-03T07:05:41;3.38;;;1.40;;
75768;SDS011;64379;48.888;8.330;2023-04-03T07:08:09;5.38;;;1.73;;
75768;SDS011;64379;48.888;8.330;2023-04-03T07:10:35;4.00;;;1.50;;
75768;SDS011;64379;48.888;8.330;2023-04-03T07:13:03;5.25;;;1.60;;
75768;SDS011;64379;48.888;8.330;2023-04-03T07:15:29;3.10;;;1.40;;
75768;SDS011;64379;48.888;8.330;2023-04-03T07:17:55;3.10;;;1.40;;
75768;SDS011;64379;48.888;8.330;2023-04-03T07:20:22;3.17;;;1.38;;
75768;SDS011;64379;48.888;8.330;2023-04-03T07:22:48;7.55;;;1.73;;
75768;SDS011;64379;48.888;8.330;2023-04-03T07:25:14;5.88;;;1.42;;
75768;SDS011;64379;48.888;8.330;2023-04-03T07:27:40;2.60;;;1.27;;
75768;SDS011;64379;48.888;8.330;2023-04-03T07:30:05;3.78;;;1.33;;
75768;SDS011;64379;48.888;8.330;2023-04-03T07:32:31;5.22;;;1.40;;
75768;SDS011;64379;48.888;8.330;2023-04-03T07:34:57;4.75;;;1.40;;
75768;SDS011;64379;48.888;8.330;2023-04-03T07:37:22;4.28;;;1.40;;
75768;SDS011;64379;48.888;8.330;2023-04-03T07:39:48;5.82;;;1.70;;
75768;SDS011;64379;48.888;8.330;2023-04-03T07:42:14;4.82;;;1.65;;
75768;SDS011;64379;48.888;8.330;2023-04-03T07:44:42;7.35;;;1.80;;
75768;SDS011;64379;48.888;8.330;2023-04-03T07:49:34;4.45;;;1.40;;
75768;SDS011;64379;48.888;8.330;2023-04-03T07:54:29;3.78;;;1.50;;
75768;SDS011;64379;48.888;8.330;2023-04-03T07:56:55;3.15;;;1.33;;
75768;SDS011;64379;48.888;8.330;2023-04-03T07:59:23;3.92;;;1.65;;
75768;SDS011;64379;48.888;8.330;2023-04-03T08:01:49;2.97;;;1.50;;
75768;SDS011;64379;48.888;8.330;2023-04-03T08:04:18;3.78;;;1.80;;
75768;SDS011;64379;48.888;8.330;2023-04-03T08:06:43;5.25;;;1.75;;
75768;SDS011;64379;48.888;8.330;2023-04-03T08:09:09;3.92;;;1.60;;
75768;SDS011;64379;48.888;8.330;2023-04-03T08:11:35;4.82;;;1.73;;
75768;SDS011;64379;48.888;8.330;2023-04-03T08:14:01;4.40;;;1.88;;
75768;SDS011;64379;48.888;8.330;2023-04-03T08:16:27;3.35;;;1.40;;
75768;SDS011;64379;48.888;8.330;2023-04-03T08:18:53;5.20;;;1.70;;
75768;SDS011;64379;48.888;8.330;2023-04-03T08:21:19;3.92;;;1.50;;
75768;SDS011;64379;48.888;8.330;2023-04-03T08:23:47;3.58;;;1.60;;
75768;SDS011;64379;48.888;8.330;2023-04-03T08:26:16;5.13;;;1.63;;
75768;SDS011;64379;48.888;8.330;2023-04-03T08:28:43;5.72;;;1.60;;
75768;SDS011;64379;48.888;8.330;2023-04-03T08:31:10;6.25;;;1.60;;
75768;SDS011;64379;48.888;8.330;2023-04-03T08:33:38;4.45;;;1.88;;
75768;SDS011;64379;48.888;8.330;2023-04-03T08:36:05;4.15;;;1.58;;
75768;SDS011;64379;48.888;8.330;2023-04-03T08:38:33;4.75;;;1.50;;
75768;SDS011;64379;48.888;8.330;2023-04-03T08:41:02;4.03;;;1.33;;
75768;SDS011;64379;48.888;8.330;2023-04-03T08:46:16;5.28;;;1.58;;
75768;SDS011;64379;48.888;8.330;2023-04-03T08:48:44;5.20;;;1.88;;
75768;SDS011;64379;48.888;8.330;2023-04-03T08:51:12;4.05;;;1.63;;
75768;SDS011;64379;48.888;8.330;2023-04-03T08:53:42;2.80;;;1.50;;
75768;SDS011;64379;48.888;8.330;2023-04-03T08:56:21;7.07;;;1.77;;
75768;SDS011;64379;48.888;8.330;2023-04-03T09:01:35;2.40;;;1.15;;
75768;SDS011;64379;48.888;8.330;2023-04-03T09:04:15;5.35;;;1.60;;
75768;SDS011;64379;48.888;8.330;2023-04-03T09:06:45;8.68;;;1.85;;
75768;SDS011;64379;48.888;8.330;2023-04-03T09:09:32;5.45;;;1.63;;
75768;SDS011;64379;48.888;8.330;2023-04-03T09:14:57;4.28;;;1.60;;
75768;SDS011;64379;48.888;8.330;2023-04-03T09:23:33;3.40;;;1.42;;
75768;SDS011;64379;48.888;8.330;2023-04-03T09:26:09;4.53;;;1.20;;
75768;SDS011;64379;48.888;8.330;2023-04-03T09:28:41;2.88;;;1.30;;
75768;SDS011;64379;48.888;8.330;2023-04-03T09:31:25;3.72;;;1.40;;
75768;SDS011;64379;48.888;8.330;2023-04-03T09:33:53;5.03;;;1.67;;
75768;SDS011;64379;48.888;8.330;2023-04-03T09:36:38;6.50;;;1.70;;
75768;SDS011;64379;48.888;8.330;2023-04-03T09:39:15;3.10;;;1.40;;
75768;SDS011;64379;48.888;8.330;2023-04-03T09:42:00;4.80;;;1.60;;
75768;SDS011;64379;48.888;8.330;2023-04-03T09:44:31;5.10;;;1.50;;
75768;SDS011;64379;48.888;8.330;2023-04-03T09:46:59;3.80;;;1.50;;
75768;SDS011;64379;48.888;8.330;2023-04-03T09:49:25;6.38;;;1.55;;
75768;SDS011;64379;48.888;8.330;2023-04-03T09:51:51;4.20;;;1.42;;
75768;SDS011;64379;48.888;8.330;2023-04-03T09:54:35;4.30;;;1.50;;
75768;SDS011;64379;48.888;8.330;2023-04-03T09:57:07;4.72;;;1.67;;
75768;SDS011;64379;48.888;8.330;2023-04-03T09:59:40;4.90;;;1.30;;
75768;SDS011;64379;48.888;8.330;2023-04-03T10:04:40;3.83;;;1.48;;
75768;SDS011;64379;48.888;8.330;2023-04-03T10:07:25;4.95;;;1.30;;
75768;SDS011;64379;48.888;8.330;2023-04-03T10:09:58;4.13;;;1.42;;
75768;SDS011;64379;48.888;8.330;2023-04-03T10:12:26;7.68;;;1.77;;
75768;SDS011;64379;48.888;8.330;2023-04-03T10:22:41;2.65;;;1.08;;
75768;SDS011;64379;48.888;8.330;2023-04-03T10:25:29;5.57;;;1.35;;
75768;SDS011;64379;48.888;8.330;2023-04-03T10:31:04;3.08;;;1.10;;
75768;SDS011;64379;48.888;8.330;2023-04-03T10:36:27;2.47;;;1.05;;
75768;SDS011;64379;48.888;8.330;2023-04-03T10:44:35;4.10;;;1.30;;
75768;SDS011;64379;48.888;8.330;2023-04-03T10:47:07;4.03;;;1.23;;
75768;SDS011;64379;48.888;8.330;2023-04-03T10:52:22;3.22;;;1.05;;
75768;SDS011;64379;48.888;8.330;2023-04-03T10:55:14;5.95;;;1.42;;
75768;SDS011;64379;48.888;8.330;2023-04-03T10:57:45;1.95;;;1.00;;
75768;SDS011;64379;48.888;8.330;2023-04-03T11:00:19;3.70;;;1.10;;
75768;SDS011;64379;48.888;8.330;2023-04-03T11:02:57;3.83;;;1.30;;
75768;SDS011;64379;48.888;8.330;2023-04-03T11:05:31;3.80;;;1.10;;
75768;SDS011;64379;48.888;8.330;2023-04-03T11:08:04;4.32;;;1.38;;
75768;SDS011;64379;48.888;8.330;2023-04-03T11:10:45;1.40;;;0.80;;
75768;SDS011;64379;48.888;8.330;2023-04-03T11:13:24;2.60;;;1.10;;
75768;SDS011;64379;48.888;8.330;2023-04-03T11:21:19;5.05;;;1.17;;
75768;SDS011;64379;48.888;8.330;2023-04-03T11:23:48;2.10;;;1.00;;
75768;SDS011;64379;48.888;8.330;2023-04-03T11:26:19;2.40;;;1.05;;
75768;SDS011;64379;48.888;8.330;2023-04-03T11:28:56;3.10;;;0.90;;
75768;SDS011;64379;48.888;8.330;2023-04-03T11:36:43;3.75;;;1.10;;
75768;SDS011;64379;48.888;8.330;2023-04-03T11:41:44;1.92;;;0.95;;
75768;SDS011;64379;48.888;8.330;2023-04-03T11:47:11;3.03;;;1.00;;
75768;SDS011;64379;48.888;8.330;2023-04-03T12:05:51;3.08;;;1.00;;
75768;SDS011;64379;48.888;8.330;2023-04-03T12:21:21;3.90;;;0.95;;
75768;SDS011;64379;48.888;8.330;2023-04-03T12:29:20;2.58;;;1.10;;
75768;SDS011;64379;48.888;8.330;2023-04-03T12:32:01;2.45;;;1.02;;
75768;SDS011;64379;48.888;8.330;2023-04-03T12:45:45;3.38;;;1.33;;
75768;SDS011;64379;48.888;8.330;2023-04-03T12:48:16;5.88;;;1.40;;
75768;SDS011;64379;48.888;8.330;2023-04-03T12:50:46;2.92;;;1.20;;
75768;SDS011;64379;48.888;8.330;2023-04-03T12:53:13;4.05;;;1.38;;
75768;SDS011;64379;48.888;8.330;2023-04-03T12:55:53;4.53;;;1.20;;
75768;SDS011;64379;48.888;8.330;2023-04-03T12:58:42;4.22;;;1.30;;
75768;SDS011;64379;48.888;8.330;2023-04-03T13:01:12;3.47;;;1.40;;
75768;SDS011;64379;48.888;8.330;2023-04-03T13:03:43;3.53;;;1.20;;
75768;SDS011;64379;48.888;8.330;2023-04-03T13:06:11;5.25;;;1.83;;
75768;SDS011;64379;48.888;8.330;2023-04-03T13:08:49;3.00;;;1.40;;
75768;SDS011;64379;48.888;8.330;2023-04-03T13:11:15;3.55;;;1.23;;
75768;SDS011;64379;48.888;8.330;2023-04-03T13:13:55;2.67;;;1.25;;
75768;SDS011;64379;48.888;8.330;2023-04-03T13:16:22;3.88;;;1.17;;
75768;SDS011;64379;48.888;8.330;2023-04-03T13:18:52;4.93;;;1.10;;
75768;SDS011;64379;48.888;8.330;2023-04-03T13:21:19;3.17;;;1.30;;
75768;SDS011;64379;48.888;8.330;2023-04-03T13:23:48;3.97;;;1.38;;
75768;SDS011;64379;48.888;8.330;2023-04-03T13:26:17;3.00;;;1.30;;
75768;SDS011;64379;48.888;8.330;2023-04-03T13:28:45;3.58;;;1.05;;
75768;SDS011;64379;48.888;8.330;2023-04-03T13:33:51;5.40;;;1.10;;
75768;SDS011;64379;48.888;8.330;2023-04-03T13:36:21;5.78;;;1.20;;
75768;SDS011;64379;48.888;8.330;2023-04-03T13:39:55;2.53;;;1.10;;
75768;SDS011;64379;48.888;8.330;2023-04-03T13:41:51;2.55;;;1.10;;
75768;SDS011;64379;48.888;8.330;2023-04-03T13:46:54;3.95;;;1.20;;
75768;SDS011;64379;48.888;8.330;2023-04-03T13:49:28;3.15;;;1.20;;
75768;SDS011;64379;48.888;8.330;2023-04-03T13:52:00;3.90;;;1.20;;
75768;SDS011;64379;48.888;8.330;2023-04-03T13:54:47;6.47;;;1.25;;
75768;SDS011;64379;48.888;8.330;2023-04-03T13:57:16;3.47;;;1.10;;
75768;SDS011;64379;48.888;8.330;2023-04-03T13:59:42;2.95;;;1.23;;
75768;SDS011;64379;48.888;8.330;2023-04-03T14:07:02;4.93;;;1.50;;
75768;SDS011;64379;48.888;8.330;2023-04-03T14:09:28;4.38;;;1.38;;
75768;SDS011;64379;48.888;8.330;2023-04-03T14:11:59;3.88;;;1.25;;
75768;SDS011;64379;48.888;8.330;2023-04-03T14:14:31;5.47;;;1.35;;
75768;SDS011;64379;48.888;8.330;2023-04-03T14:16:59;4.00;;;1.25;;
75768;SDS011;64379;48.888;8.330;2023-04-03T14:21:54;4.95;;;1.20;;
75768;SDS011;64379;48.888;8.330;2023-04-03T14:24:21;5.10;;;1.17;;
75768;SDS011;64379;48.888;8.330;2023-04-03T14:26:48;3.38;;;1.10;;
75768;SDS011;64379;48.888;8.330;2023-04-03T14:29:16;3.38;;;1.10;;
75768;SDS011;64379;48.888;8.330;2023-04-03T14:31:43;3.13;;;1.17;;
75768;SDS011;64379;48.888;8.330;2023-04-03T14:34:11;3.00;;;1.20;;
75768;SDS011;64379;48.888;8.330;2023-04-03T14:36:38;5.88;;;1.45;;
75768;SDS011;64379;48.888;8.330;2023-04-03T14:39:05;4.03;;;1.33;;
75768;SDS011;64379;48.888;8.330;2023-04-03T14:41:33;2.97;;;1.15;;
75768;SDS011;64379;48.888;8.330;2023-04-03T14:43:59;3.30;;;1.23;;
75768;SDS011;64379;48.888;8.330;2023-04-03T14:46:29;4.55;;;1.20;;
75768;SDS011;64379;48.888;8.330;2023-04-03T14:49:01;3.63;;;1.38;;
75768;SDS011;64379;48.888;8.330;2023-04-03T14:51:27;4.00;;;1.30;;
75768;SDS011;64379;48.888;8.330;2023-04-03T14:53:53;4.55;;;1.25;;
75768;SDS011;64379;48.888;8.330;2023-04-03T14:56:27;5.25;;;1.20;;
75768;SDS011;64379;48.888;8.330;2023-04-03T14:58:58;4.03;;;1.20;;
75768;SDS011;64379;48.888;8.330;2023-04-03T15:01:26;4.90;;;1.20;;
75768;SDS011;64379;48.888;8.330;2023-04-03T15:03:52;5.53;;;1.50;;
75768;SDS011;64379;48.888;8.330;2023-04-03T15:06:18;3.83;;;1.30;;
75768;SDS011;64379;48.888;8.330;2023-04-03T15:08:45;1.73;;;1.00;;
75768;SDS011;64379;48.888;8.330;2023-04-03T15:11:12;3.35;;;1.30;;
75768;SDS011;64379;48.888;8.330;2023-04-03T15:13:38;3.35;;;1.30;;
75768;SDS011;64379;48.888;8.330;2023-04-03T15:16:17;4.10;;;1.20;;
75768;SDS011;64379;48.888;8.330;2023-04-03T15:18:44;4.00;;;1.10;;
75768;SDS011;64379;48.888;8.330;2023-04-03T15:21:10;4.22;;;1.25;;
75768;SDS011;64379;48.888;8.330;2023-04-03T15:23:37;3.17;;;1.20;;
75768;SDS011;64379;48.888;8.330;2023-04-03T15:26:02;4.03;;;1.20;;
75768;SDS011;64379;48.888;8.330;2023-04-03T15:31:00;3.45;;;1.30;;
75768;SDS011;64379;48.888;8.330;2023-04-03T15:33:25;3.60;;;1.10;;
75768;SDS011;64379;48.888;8.330;2023-04-03T15:35:51;4.15;;;1.30;;
75768;SDS011;64379;48.888;8.330;2023-04-03T15:38:17;5.50;;;1.40;;
75768;SDS011;64379;48.888;8.330;2023-04-03T15:40:43;5.32;;;1.30;;
75768;SDS011;64379;48.888;8.330;2023-04-03T15:43:09;2.97;;;1.20;;
75768;SDS011;64379;48.888;8.330;2023-04-03T15:45:35;3.08;;;1.20;;
75768;SDS011;64379;48.888;8.330;2023-04-03T15:48:02;4.32;;;1.20;;
75768;SDS011;64379;48.888;8.330;2023-04-03T15:50:29;3.70;;;1.38;;
75768;SDS011;64379;48.888;8.330;2023-04-03T15:52:55;3.80;;;1.30;;
75768;SDS011;64379;48.888;8.330;2023-04-03T15:55:23;3.58;;;1.13;;
75768;SDS011;64379;48.888;8.330;2023-04-03T15:57:50;4.80;;;1.40;;
75768;SDS011;64379;48.888;8.330;2023-04-03T16:00:16;4.05;;;1.20;;
75768;SDS011;64379;48.888;8.330;2023-04-03T16:02:45;4.10;;;1.08;;
75768;SDS011;64379;48.888;8.330;2023-04-03T16:05:12;5.28;;;1.20;;
75768;SDS011;64379;48.888;8.330;2023-04-03T16:07:40;3.35;;;0.98;;
75768;SDS011;64379;48.888;8.330;2023-04-03T16:10:07;3.00;;;1.10;;
75768;SDS011;64379;48.888;8.330;2023-04-03T16:12:34;3.03;;;1.00;;
75768;SDS011;64379;48.888;8.330;2023-04-03T16:15:00;3.85;;;1.05;;
75768;SDS011;64379;48.888;8.330;2023-04-03T16:17:26;4.47;;;1.10;;
75768;SDS011;64379;48.888;8.330;2023-04-03T16:19:52;2.55;;;1.05;;
75768;SDS011;64379;48.888;8.330;2023-04-03T16:22:19;3.58;;;1.13;;
75768;SDS011;64379;48.888;8.330;2023-04-03T16:24:46;4.78;;;1.30;;
75768;SDS011;64379;48.888;8.330;2023-04-03T16:27:11;2.28;;;1.00;;
75768;SDS011;64379;48.888;8.330;2023-04-03T16:29:37;6.43;;;1.20;;
75768;SDS011;64379;48.888;8.330;2023-04-03T16:32:02;3.03;;;1.15;;
75768;SDS011;64379;48.888;8.330;2023-04-03T16:34:28;4.05;;;1.33;;
75768;SDS011;64379;48.888;8.330;2023-04-03T16:36:57;3.20;;;1.15;;
75768;SDS011;64379;48.888;8.330;2023-04-03T16:39:22;3.08;;;1.05;;
75768;SDS011;64379;48.888;8.330;2023-04-03T16:41:48;3.22;;;1.20;;
75768;SDS011;64379;48.888;8.330;2023-04-03T16:44:13;2.33;;;1.00;;
75768;SDS011;64379;48.888;8.330;2023-04-03T16:46:39;3.88;;;1.30;;
75768;SDS011;64379;48.888;8.330;2023-04-03T16:49:04;4.50;;;1.20;;
75768;SDS011;64379;48.888;8.330;2023-04-03T16:51:30;3.33;;;1.38;;
75768;SDS011;64379;48.888;8.330;2023-04-03T16:53:57;4.72;;;1.27;;
75768;SDS011;64379;48.888;8.330;2023-04-03T16:56:23;5.00;;;1.40;;
75768;SDS011;64379;48.888;8.330;2023-04-03T16:58:54;3.55;;;1.23;;
75768;SDS011;64379;48.888;8.330;2023-04-03T17:01:20;4.05;;;1.30;;
75768;SDS011;64379;48.888;8.330;2023-04-03T17:03:47;5.13;;;1.30;;
75768;SDS011;64379;48.888;8.330;2023-04-03T17:06:15;3.13;;;1.15;;
75768;SDS011;64379;48.888;8.330;2023-04-03T17:08:43;3.92;;;1.40;;
75768;SDS011;64379;48.888;8.330;2023-04-03T17:11:10;3.17;;;1.17;;
75768;SDS011;64379;48.888;8.330;2023-04-03T17:13:36;2.58;;;1.10;;
75768;SDS011;64379;48.888;8.330;2023-04-03T17:16:02;2.85;;;1.05;;
75768;SDS011;64379;48.888;8.330;2023-04-03T17:20:57;4.38;;;1.33;;
75768;SDS011;64379;48.888;8.330;2023-04-03T17:23:23;5.03;;;1.30;;
75768;SDS011;64379;48.888;8.330;2023-04-03T17:25:51;3.83;;;1.08;;